Garfield, KY (40140)

6:12 AM CDT on July 30, 2016 (GMT -0500)
KY-86 Breckinridge/Hardin County Line | | Change Station

Elev 850 ft 37.71 °N, 86.21 °W | Updated 8 minutes ago

Overcast
Overcast
68.0 °F
Feels Like 68.0 °F
N
0.0
Wind Variable Wind from ESE

Today
High -- | Low -- °F
--% Chance of Precip.
Yesterday
High -- | Low -- °F
Precip. -- in
Pressure 29.95 in
Visibility 1.2 miles
Clouds Overcast 200 ft
Dew Point 68 °F
Humidity 99%
Rainfall 0.00 in
Snow Depth Not available.
5:47 AM 7:55 PM
Waning Crescent, 14% visible
SPECI KFTK 301108Z AUTO 26003KT 1 1/4SM BR OVC002 21/21 A2995 RMK AO2
Pressure 29.95 in
Visibility 1.2 miles
Clouds Overcast 200 ft
Dew Point 68 °F
Humidity 99%
Rainfall 0.00 in
Snow Depth Not available.
5:47 AM 7:55 PM
Waning Crescent, 14% visible
SPECI KFTK 301108Z AUTO 26003KT 1 1/4SM BR OVC002 21/21 A2995 RMK AO2

10-Day Weather Forecast

Almanac

Astronomy

Jul. 30, 2016 Rise Set
Actual Time
Civil Twilight
Nautical Twilight
Astronomical Twilight
Moon
Length of Visible Light
Length of Day
Tomorrow will be .
, % of the Moon is Illuminated

Today's Extremes

State Highs State Lows

Community

WunderPhotos

Upload Photos

1,928,530 photos uploaded!

WunderBlog® & News

Nearby

Air Quality

  Air Quality AQ Index Pollutant
Not available.

Snow Depth

Station Depth Elevation

Earthquake Activity

City Distance Mag. Time & Date
Minimum magnitude displayed is 2.5.

Coastal Water Temperatures

Place Temperature

Stations

Nearby Weather Stations

Station Location Temp. Windchill Dew Point Humidity Wind Precip. Elev Updated Type
                   

Watches & Warnings

There are currently no watches in effect.